sensor_id;sensor_type;location;lat;lon;timestamp;pressure;altitude;pressure_sealevel;temperature;humidity
80927;BME280;70385;44.538;18.532;2024-01-10T00:00:31;100862.81;;;-6.36;100.00
80927;BME280;70385;44.538;18.532;2024-01-10T00:02:57;100875.84;;;-6.30;100.00
80927;BME280;70385;44.538;18.532;2024-01-10T00:05:26;100887.25;;;-6.40;100.00
80927;BME280;70385;44.538;18.532;2024-01-10T00:08:26;100875.84;;;-6.66;100.00
80927;BME280;70385;44.538;18.532;2024-01-10T00:10:55;100873.28;;;-6.84;100.00
80927;BME280;70385;44.538;18.532;2024-01-10T00:13:21;100884.25;;;-6.85;100.00
80927;BME280;70385;44.538;18.532;2024-01-10T00:15:49;100878.81;;;-6.92;100.00
80927;BME280;70385;44.538;18.532;2024-01-10T00:18:17;100870.19;;;-6.94;100.00
80927;BME280;70385;44.538;18.532;2024-01-10T00:20:48;100871.78;;;-6.96;100.00
80927;BME280;70385;44.538;18.532;2024-01-10T00:23:14;100872.84;;;-6.93;100.00
80927;BME280;70385;44.538;18.532;2024-01-10T00:25:55;100882.84;;;-6.96;100.00
80927;BME280;70385;44.538;18.532;2024-01-10T00:28:21;100876.44;;;-7.06;100.00
80927;BME280;70385;44.538;18.532;2024-01-10T00:30:49;100879.78;;;-7.07;100.00
80927;BME280;70385;44.538;18.532;2024-01-10T00:33:15;100870.19;;;-6.94;100.00
80927;BME280;70385;44.538;18.532;2024-01-10T00:35:43;100883.56;;;-6.98;100.00
80927;BME280;70385;44.538;18.532;2024-01-10T00:38:20;100871.09;;;-6.94;100.00
80927;BME280;70385;44.538;18.532;2024-01-10T00:41:06;100875.03;;;-7.17;100.00
80927;BME280;70385;44.538;18.532;2024-01-10T00:43:48;100886.91;;;-6.99;100.00
80927;BME280;70385;44.538;18.532;2024-01-10T00:46:36;100887.72;;;-7.17;100.00
80927;BME280;70385;44.538;18.532;2024-01-10T00:49:02;100895.94;;;-7.22;100.00
80927;BME280;70385;44.538;18.532;2024-01-10T00:51:28;100888.09;;;-7.43;100.00
80927;BME280;70385;44.538;18.532;2024-01-10T00:53:54;100906.13;;;-7.55;100.00
80927;BME280;70385;44.538;18.532;2024-01-10T00:56:19;100895.72;;;-7.59;100.00
80927;BME280;70385;44.538;18.532;2024-01-10T00:58:45;100885.78;;;-7.55;100.00
80927;BME280;70385;44.538;18.532;2024-01-10T01:01:11;100892.22;;;-7.61;100.00
80927;BME280;70385;44.538;18.532;2024-01-10T01:03:37;100893.03;;;-7.62;100.00
80927;BME280;70385;44.538;18.532;2024-01-10T01:06:04;100886.19;;;-7.63;100.00
80927;BME280;70385;44.538;18.532;2024-01-10T01:08:30;100888.16;;;-7.74;100.00
80927;BME280;70385;44.538;18.532;2024-01-10T01:10:57;100893.56;;;-7.84;100.00
80927;BME280;70385;44.538;18.532;2024-01-10T01:13:22;100896.34;;;-7.80;100.00
80927;BME280;70385;44.538;18.532;2024-01-10T01:15:48;100893.81;;;-7.63;100.00
80927;BME280;70385;44.538;18.532;2024-01-10T01:18:15;100900.13;;;-7.72;100.00
80927;BME280;70385;44.538;18.532;2024-01-10T01:20:45;100900.66;;;-7.62;100.00
80927;BME280;70385;44.538;18.532;2024-01-10T01:23:14;100896.03;;;-7.53;100.00
80927;BME280;70385;44.538;18.532;2024-01-10T01:25:40;100892.53;;;-7.55;100.00
80927;BME280;70385;44.538;18.532;2024-01-10T01:44:23;100906.66;;;-8.24;100.00
80927;BME280;70385;44.538;18.532;2024-01-10T01:46:51;100886.16;;;-8.43;100.00
80927;BME280;70385;44.538;18.532;2024-01-10T01:49:17;100887.13;;;-8.41;100.00
80927;BME280;70385;44.538;18.532;2024-01-10T01:51:43;100885.00;;;-8.17;100.00
80927;BME280;70385;44.538;18.532;2024-01-10T01:54:09;100882.84;;;-8.26;100.00
80927;BME280;70385;44.538;18.532;2024-01-10T01:56:37;100869.84;;;-8.16;100.00
80927;BME280;70385;44.538;18.532;2024-01-10T01:59:04;100869.47;;;-8.07;100.00
80927;BME280;70385;44.538;18.532;2024-01-10T02:01:30;100870.34;;;-8.07;100.00
80927;BME280;70385;44.538;18.532;2024-01-10T02:03:56;100871.66;;;-8.13;100.00
80927;BME280;70385;44.538;18.532;2024-01-10T02:06:24;100865.00;;;-8.11;100.00
80927;BME280;70385;44.538;18.532;2024-01-10T02:08:50;100870.75;;;-8.30;100.00
80927;BME280;70385;44.538;18.532;2024-01-10T02:11:19;100865.38;;;-8.36;100.00
80927;BME280;70385;44.538;18.532;2024-01-10T02:17:12;100867.22;;;-8.48;100.00
80927;BME280;70385;44.538;18.532;2024-01-10T02:19:39;100864.53;;;-8.51;100.00
80927;BME280;70385;44.538;18.532;2024-01-10T02:22:05;100871.03;;;-8.57;100.00
80927;BME280;70385;44.538;18.532;2024-01-10T02:24:31;100870.00;;;-8.60;100.00
80927;BME280;70385;44.538;18.532;2024-01-10T02:26:57;100877.69;;;-8.59;100.00
80927;BME280;70385;44.538;18.532;2024-01-10T02:29:24;100877.16;;;-8.68;100.00
80927;BME280;70385;44.538;18.532;2024-01-10T02:31:52;100872.78;;;-8.55;100.00
80927;BME280;70385;44.538;18.532;2024-01-10T02:34:18;100879.84;;;-8.50;100.00
80927;BME280;70385;44.538;18.532;2024-01-10T02:36:46;100870.94;;;-8.58;100.00
80927;BME280;70385;44.538;18.532;2024-01-10T02:39:12;100874.91;;;-8.63;100.00
80927;BME280;70385;44.538;18.532;2024-01-10T02:41:38;100883.22;;;-8.35;100.00
80927;BME280;70385;44.538;18.532;2024-01-10T02:44:04;100886.88;;;-8.46;100.00
80927;BME280;70385;44.538;18.532;2024-01-10T02:46:30;100880.28;;;-8.42;100.00
80927;BME280;70385;44.538;18.532;2024-01-10T02:48:56;100884.91;;;-8.35;100.00
80927;BME280;70385;44.538;18.532;2024-01-10T02:51:22;100873.78;;;-8.37;100.00
80927;BME280;70385;44.538;18.532;2024-01-10T02:53:48;100876.50;;;-8.49;100.00
80927;BME280;70385;44.538;18.532;2024-01-10T03:04:20;100881.19;;;-8.71;100.00
80927;BME280;70385;44.538;18.532;2024-01-10T03:06:46;100878.47;;;-8.74;100.00
80927;BME280;70385;44.538;18.532;2024-01-10T03:12:54;100861.81;;;-8.85;100.00
80927;BME280;70385;44.538;18.532;2024-01-10T03:15:30;100880.13;;;-8.60;100.00
80927;BME280;70385;44.538;18.532;2024-01-10T03:17:56;100875.16;;;-8.73;100.00
80927;BME280;70385;44.538;18.532;2024-01-10T03:20:25;100874.13;;;-8.92;100.00
80927;BME280;70385;44.538;18.532;2024-01-10T03:22:52;100880.34;;;-8.86;100.00
80927;BME280;70385;44.538;18.532;2024-01-10T03:25:19;100860.81;;;-8.88;100.00
80927;BME280;70385;44.538;18.532;2024-01-10T03:31:32;100874.03;;;-8.78;100.00
80927;BME280;70385;44.538;18.532;2024-01-10T03:33:58;100863.72;;;-8.81;100.00
80927;BME280;70385;44.538;18.532;2024-01-10T03:36:24;100877.16;;;-8.68;100.00
80927;BME280;70385;44.538;18.532;2024-01-10T03:38:50;100865.97;;;-8.71;100.00
80927;BME280;70385;44.538;18.532;2024-01-10T03:41:17;100880.31;;;-8.57;100.00
80927;BME280;70385;44.538;18.532;2024-01-10T03:43:46;100877.06;;;-8.69;100.00
80927;BME280;70385;44.538;18.532;2024-01-10T03:46:19;100866.16;;;-8.83;100.00
80927;BME280;70385;44.538;18.532;2024-01-10T03:48:45;100869.56;;;-8.97;100.00
80927;BME280;70385;44.538;18.532;2024-01-10T03:51:18;100871.31;;;-8.96;100.00
80927;BME280;70385;44.538;18.532;2024-01-10T03:53:46;100866.16;;;-9.12;100.00
80927;BME280;70385;44.538;18.532;2024-01-10T03:56:18;100862.84;;;-9.11;100.00
80927;BME280;70385;44.538;18.532;2024-01-10T03:58:44;100878.22;;;-9.23;100.00
80927;BME280;70385;44.538;18.532;2024-01-10T04:01:14;100890.13;;;-9.22;100.00
80927;BME280;70385;44.538;18.532;2024-01-10T04:03:40;100878.41;;;-9.20;100.00
80927;BME280;70385;44.538;18.532;2024-01-10T04:06:10;100874.72;;;-9.25;100.00
80927;BME280;70385;44.538;18.532;2024-01-10T04:08:36;100885.97;;;-9.35;100.00
80927;BME280;70385;44.538;18.532;2024-01-10T04:11:02;100885.72;;;-9.39;100.00
80927;BME280;70385;44.538;18.532;2024-01-10T04:13:29;100882.22;;;-9.41;100.00
80927;BME280;70385;44.538;18.532;2024-01-10T04:15:55;100885.72;;;-9.39;100.00
80927;BME280;70385;44.538;18.532;2024-01-10T04:18:24;100887.63;;;-9.35;100.00
80927;BME280;70385;44.538;18.532;2024-01-10T04:20:50;100883.97;;;-9.40;100.00
80927;BME280;70385;44.538;18.532;2024-01-10T04:23:19;100879.59;;;-9.28;100.00
80927;BME280;70385;44.538;18.532;2024-01-10T04:25:47;100885.56;;;-9.13;100.00
80927;BME280;70385;44.538;18.532;2024-01-10T04:28:13;100887.84;;;-9.03;100.00
80927;BME280;70385;44.538;18.532;2024-01-10T04:30:40;100897.28;;;-9.15;100.00
80927;BME280;70385;44.538;18.532;2024-01-10T04:33:08;100893.16;;;-9.13;100.00
80927;BME280;70385;44.538;18.532;2024-01-10T04:35:34;100901.13;;;-8.92;100.00
80927;BME280;70385;44.538;18.532;2024-01-10T04:38:00;100907.28;;;-9.03;100.00
80927;BME280;70385;44.538;18.532;2024-01-10T04:40:26;100904.66;;;-9.05;100.00
80927;BME280;70385;44.538;18.532;2024-01-10T04:42:52;100909.72;;;-9.05;100.00
80927;BME280;70385;44.538;18.532;2024-01-10T04:45:17;100917.84;;;-8.96;100.00
80927;BME280;70385;44.538;18.532;2024-01-10T04:47:43;100918.56;;;-8.98;100.00
80927;BME280;70385;44.538;18.532;2024-01-10T04:50:10;100930.16;;;-8.87;100.00
80927;BME280;70385;44.538;18.532;2024-01-10T04:52:36;100926.16;;;-8.83;100.00
80927;BME280;70385;44.538;18.532;2024-01-10T04:55:02;100922.66;;;-8.71;100.00
80927;BME280;70385;44.538;18.532;2024-01-10T04:57:31;100931.84;;;-8.43;100.00
80927;BME280;70385;44.538;18.532;2024-01-10T05:00:00;100936.22;;;-8.41;100.00
80927;BME280;70385;44.538;18.532;2024-01-10T05:02:26;100923.91;;;-8.33;100.00
80927;BME280;70385;44.538;18.532;2024-01-10T05:04:54;100926.25;;;-8.21;100.00
80927;BME280;70385;44.538;18.532;2024-01-10T05:07:20;100936.38;;;-8.38;100.00
80927;BME280;70385;44.538;18.532;2024-01-10T05:09:46;100959.13;;;-8.54;100.00
80927;BME280;70385;44.538;18.532;2024-01-10T05:12:11;100955.81;;;-8.53;100.00
80927;BME280;70385;44.538;18.532;2024-01-10T05:14:37;100941.81;;;-8.61;100.00
80927;BME280;70385;44.538;18.532;2024-01-10T05:17:04;100953.81;;;-8.59;100.00
80927;BME280;70385;44.538;18.532;2024-01-10T05:19:30;100953.28;;;-8.53;100.00
80927;BME280;70385;44.538;18.532;2024-01-10T05:21:58;100950.13;;;-8.49;100.00
80927;BME280;70385;44.538;18.532;2024-01-10T05:24:24;100953.28;;;-8.53;100.00
80927;BME280;70385;44.538;18.532;2024-01-10T05:26:51;100963.25;;;-8.56;100.00
80927;BME280;70385;44.538;18.532;2024-01-10T05:29:19;100963.78;;;-8.62;100.00
80927;BME280;70385;44.538;18.532;2024-01-10T05:31:47;100958.00;;;-8.59;100.00
80927;BME280;70385;44.538;18.532;2024-01-10T05:34:14;100954.16;;;-8.52;100.00
80927;BME280;70385;44.538;18.532;2024-01-10T05:36:40;100964.31;;;-8.38;100.00
80927;BME280;70385;44.538;18.532;2024-01-10T05:39:05;100949.38;;;-8.32;100.00
80927;BME280;70385;44.538;18.532;2024-01-10T05:41:32;100947.97;;;-8.27;100.00
80927;BME280;70385;44.538;18.532;2024-01-10T05:44:00;100970.75;;;-8.28;100.00
80927;BME280;70385;44.538;18.532;2024-01-10T05:46:28;100955.09;;;-8.36;100.00
80927;BME280;70385;44.538;18.532;2024-01-10T05:48:53;100961.50;;;-8.57;100.00
80927;BME280;70385;44.538;18.532;2024-01-10T05:51:20;100963.88;;;-8.60;100.00
80927;BME280;70385;44.538;18.532;2024-01-10T05:53:48;100969.28;;;-8.54;100.00
80927;BME280;70385;44.538;18.532;2024-01-10T05:56:14;100980.56;;;-8.49;100.00
80927;BME280;70385;44.538;18.532;2024-01-10T05:58:40;100974.28;;;-8.41;100.00
80927;BME280;70385;44.538;18.532;2024-01-10T06:01:06;100974.44;;;-8.38;100.00
80927;BME280;70385;44.538;18.532;2024-01-10T06:03:35;100974.13;;;-8.44;100.00
80927;BME280;70385;44.538;18.532;2024-01-10T06:06:05;100981.72;;;-8.44;100.00
80927;BME280;70385;44.538;18.532;2024-01-10T06:08:32;100980.41;;;-8.52;100.00
80927;BME280;70385;44.538;18.532;2024-01-10T06:10:59;100972.00;;;-8.51;100.00
80927;BME280;70385;44.538;18.532;2024-01-10T06:13:28;100989.34;;;-8.59;100.00
80927;BME280;70385;44.538;18.532;2024-01-10T06:15:54;100972.69;;;-8.68;100.00
80927;BME280;70385;44.538;18.532;2024-01-10T06:18:20;100981.72;;;-8.59;100.00
80927;BME280;70385;44.538;18.532;2024-01-10T06:20:46;100977.28;;;-8.63;100.00
80927;BME280;70385;44.538;18.532;2024-01-10T06:23:13;100987.69;;;-8.43;100.00
80927;BME280;70385;44.538;18.532;2024-01-10T06:25:39;100985.56;;;-8.50;100.00
80927;BME280;70385;44.538;18.532;2024-01-10T06:28:05;100988.91;;;-8.66;100.00
80927;BME280;70385;44.538;18.532;2024-01-10T06:30:31;100981.81;;;-8.57;100.00
80927;BME280;70385;44.538;18.532;2024-01-10T06:32:57;100981.44;;;-8.48;100.00
80927;BME280;70385;44.538;18.532;2024-01-10T06:35:30;100982.22;;;-8.35;100.00
80927;BME280;70385;44.538;18.532;2024-01-10T06:37:59;100987.31;;;-8.35;100.00
80927;BME280;70385;44.538;18.532;2024-01-10T06:40:29;100985.47;;;-8.37;100.00
80927;BME280;70385;44.538;18.532;2024-01-10T06:42:55;100994.75;;;-8.38;100.00
80927;BME280;70385;44.538;18.532;2024-01-10T06:45:22;100999.25;;;-8.32;100.00
80927;BME280;70385;44.538;18.532;2024-01-10T06:47:48;101001.47;;;-8.23;100.00
80927;BME280;70385;44.538;18.532;2024-01-10T06:50:15;101003.84;;;-8.27;100.00
80927;BME280;70385;44.538;18.532;2024-01-10T06:52:41;101014.38;;;-8.35;100.00
80927;BME280;70385;44.538;18.532;2024-01-10T06:55:08;101009.13;;;-8.38;100.00
80927;BME280;70385;44.538;18.532;2024-01-10T06:57:34;101006.19;;;-8.30;100.00
80927;BME280;70385;44.538;18.532;2024-01-10T07:00:03;101016.25;;;-8.16;100.00
80927;BME280;70385;44.538;18.532;2024-01-10T07:02:38;101003.00;;;-8.11;100.00
80927;BME280;70385;44.538;18.532;2024-01-10T07:05:09;100990.13;;;-7.99;100.00
80927;BME280;70385;44.538;18.532;2024-01-10T07:07:36;101013.06;;;-7.83;100.00
80927;BME280;70385;44.538;18.532;2024-01-10T07:10:22;101007.41;;;-7.77;100.00
80927;BME280;70385;44.538;18.532;2024-01-10T07:12:53;101001.97;;;-7.69;100.00
80927;BME280;70385;44.538;18.532;2024-01-10T07:15:23;101000.25;;;-7.53;100.00
80927;BME280;70385;44.538;18.532;2024-01-10T07:17:49;101002.41;;;-7.45;100.00
80927;BME280;70385;44.538;18.532;2024-01-10T07:20:16;100999.50;;;-7.20;100.00
80927;BME280;70385;44.538;18.532;2024-01-10T07:22:44;101007.91;;;-7.37;100.00
80927;BME280;70385;44.538;18.532;2024-01-10T07:25:12;101027.69;;;-7.48;100.00
80927;BME280;70385;44.538;18.532;2024-01-10T07:27:40;101014.13;;;-7.32;100.00
80927;BME280;70385;44.538;18.532;2024-01-10T07:30:07;101022.00;;;-7.27;100.00
80927;BME280;70385;44.538;18.532;2024-01-10T07:32:43;101022.69;;;-6.97;100.00
80927;BME280;70385;44.538;18.532;2024-01-10T07:35:09;101012.59;;;-6.96;100.00
80927;BME280;70385;44.538;18.532;2024-01-10T07:37:40;101025.88;;;-6.85;100.00
80927;BME280;70385;44.538;18.532;2024-01-10T07:40:10;101015.22;;;-6.78;100.00
80927;BME280;70385;44.538;18.532;2024-01-10T07:42:56;101008.00;;;-6.70;100.00
80927;BME280;70385;44.538;18.532;2024-01-10T07:45:22;101019.34;;;-6.64;100.00
80927;BME280;70385;44.538;18.532;2024-01-10T07:47:48;101011.72;;;-6.64;100.00
80927;BME280;70385;44.538;18.532;2024-01-10T07:50:20;101012.00;;;-6.92;100.00
80927;BME280;70385;44.538;18.532;2024-01-10T07:52:51;101025.59;;;-6.41;100.00
80927;BME280;70385;44.538;18.532;2024-01-10T07:55:41;101018.28;;;-6.35;100.00
80927;BME280;70385;44.538;18.532;2024-01-10T07:58:06;101005.47;;;-6.01;100.00
80927;BME280;70385;44.538;18.532;2024-01-10T08:00:32;101018.91;;;-5.86;100.00
80927;BME280;70385;44.538;18.532;2024-01-10T08:02:59;101017.81;;;-5.73;100.00
80927;BME280;70385;44.538;18.532;2024-01-10T08:05:25;101019.09;;;-5.45;100.00
80927;BME280;70385;44.538;18.532;2024-01-10T08:07:51;101020.28;;;-5.39;100.00
80927;BME280;70385;44.538;18.532;2024-01-10T08:10:17;101013.63;;;-6.08;100.00
80927;BME280;70385;44.538;18.532;2024-01-10T08:12:43;101016.22;;;-5.71;100.00
80927;BME280;70385;44.538;18.532;2024-01-10T08:15:14;101019.53;;;-5.36;100.00
80927;BME280;70385;44.538;18.532;2024-01-10T08:17:45;101017.94;;;-5.15;100.00
80927;BME280;70385;44.538;18.532;2024-01-10T08:20:32;101013.72;;;-5.14;100.00
80927;BME280;70385;44.538;18.532;2024-01-10T08:23:06;101013.56;;;-5.37;100.00
80927;BME280;70385;44.538;18.532;2024-01-10T08:25:36;101017.16;;;-5.51;100.00
80927;BME280;70385;44.538;18.532;2024-01-10T08:28:10;101007.66;;;-5.36;100.00
80927;BME280;70385;44.538;18.532;2024-01-10T08:30:41;101014.47;;;-5.72;100.00
80927;BME280;70385;44.538;18.532;2024-01-10T08:33:16;101011.84;;;-4.99;100.00
80927;BME280;70385;44.538;18.532;2024-01-10T08:35:54;101015.34;;;-4.97;100.00
80927;BME280;70385;44.538;18.532;2024-01-10T08:38:22;101019.34;;;-4.83;100.00
80927;BME280;70385;44.538;18.532;2024-01-10T08:40:51;101022.38;;;-5.11;100.00
80927;BME280;70385;44.538;18.532;2024-01-10T08:43:36;101014.91;;;-5.06;100.00
80927;BME280;70385;44.538;18.532;2024-01-10T08:46:05;101024.38;;;-4.65;100.00
80927;BME280;70385;44.538;18.532;2024-01-10T08:48:43;101024.72;;;-4.77;100.00
80927;BME280;70385;44.538;18.532;2024-01-10T08:51:10;101025.69;;;-4.94;100.00
80927;BME280;70385;44.538;18.532;2024-01-10T08:53:37;101031.28;;;-4.43;100.00
80927;BME280;70385;44.538;18.532;2024-01-10T08:56:03;101025.63;;;-3.94;100.00
80927;BME280;70385;44.538;18.532;2024-01-10T08:58:47;101016.22;;;-3.73;100.00
80927;BME280;70385;44.538;18.532;2024-01-10T09:01:21;101026.66;;;-3.89;100.00
80927;BME280;70385;44.538;18.532;2024-01-10T09:04:02;101038.03;;;-4.04;100.00
80927;BME280;70385;44.538;18.532;2024-01-10T09:10:14;101021.81;;;-3.83;100.00
80927;BME280;70385;44.538;18.532;2024-01-10T09:12:58;101023.84;;;-3.75;100.00
80927;BME280;70385;44.538;18.532;2024-01-10T09:15:33;101020.69;;;-3.47;100.00
80927;BME280;70385;44.538;18.532;2024-01-10T09:18:04;101032.28;;;-3.32;100.00
80927;BME280;70385;44.538;18.532;2024-01-10T09:20:35;101029.97;;;-3.49;100.00
80927;BME280;70385;44.538;18.532;2024-01-10T09:23:43;101031.41;;;-3.78;100.00
80927;BME280;70385;44.538;18.532;2024-01-10T09:26:19;101020.03;;;-3.63;100.00
80927;BME280;70385;44.538;18.532;2024-01-10T09:28:47;101027.41;;;-3.92;100.00
80927;BME280;70385;44.538;18.532;2024-01-10T09:31:14;101023.81;;;-3.97;100.00
80927;BME280;70385;44.538;18.532;2024-01-10T09:33:40;101019.06;;;-4.09;100.00
80927;BME280;70385;44.538;18.532;2024-01-10T09:36:09;101027.47;;;-3.90;100.00
80927;BME280;70385;44.538;18.532;2024-01-10T09:38:48;101020.41;;;-3.75;100.00
80927;BME280;70385;44.538;18.532;2024-01-10T09:41:16;101016.94;;;-3.32;100.00
80927;BME280;70385;44.538;18.532;2024-01-10T09:43:56;101018.75;;;-3.30;100.00
80927;BME280;70385;44.538;18.532;2024-01-10T09:46:24;101008.44;;;-3.31;100.00
80927;BME280;70385;44.538;18.532;2024-01-10T09:48:58;101012.88;;;-3.50;100.00
80927;BME280;70385;44.538;18.532;2024-01-10T09:51:35;101010.66;;;-3.85;100.00
80927;BME280;70385;44.538;18.532;2024-01-10T09:54:11;101012.47;;;-4.04;100.00
80927;BME280;70385;44.538;18.532;2024-01-10T09:56:37;101006.25;;;-3.45;100.00
80927;BME280;70385;44.538;18.532;2024-01-10T09:59:06;101012.75;;;-3.75;100.00
80927;BME280;70385;44.538;18.532;2024-01-10T10:01:43;100999.84;;;-3.56;100.00
80927;BME280;70385;44.538;18.532;2024-01-10T10:04:14;100994.16;;;-3.49;100.00
80927;BME280;70385;44.538;18.532;2024-01-10T10:06:45;100992.81;;;-2.69;100.00
80927;BME280;70385;44.538;18.532;2024-01-10T10:09:15;100991.94;;;-2.69;100.00
80927;BME280;70385;44.538;18.532;2024-01-10T10:11:42;100989.81;;;-3.05;100.00
80927;BME280;70385;44.538;18.532;2024-01-10T10:14:17;100991.72;;;-3.23;100.00
80927;BME280;70385;44.538;18.532;2024-01-10T10:17:15;100987.16;;;-3.08;100.00
80927;BME280;70385;44.538;18.532;2024-01-10T10:19:44;100981.69;;;-3.17;100.00
80927;BME280;70385;44.538;18.532;2024-01-10T10:22:11;100978.53;;;-2.35;100.00
80927;BME280;70385;44.538;18.532;2024-01-10T10:24:49;100972.75;;;-2.55;100.00
80927;BME280;70385;44.538;18.532;2024-01-10T10:27:20;100968.69;;;-2.74;100.00
80927;BME280;70385;44.538;18.532;2024-01-10T10:29:47;100967.72;;;-2.78;100.00
80927;BME280;70385;44.538;18.532;2024-01-10T10:32:16;100954.03;;;-3.03;100.00
80927;BME280;70385;44.538;18.532;2024-01-10T10:34:47;100966.16;;;-3.22;100.00
80927;BME280;70385;44.538;18.532;2024-01-10T10:37:23;100967.63;;;-2.81;100.00
80927;BME280;70385;44.538;18.532;2024-01-10T10:39:55;100958.97;;;-3.08;100.00
80927;BME280;70385;44.538;18.532;2024-01-10T10:42:26;100952.56;;;-2.46;100.00
80927;BME280;70385;44.538;18.532;2024-01-10T10:45:05;100958.44;;;-2.50;100.00
80927;BME280;70385;44.538;18.532;2024-01-10T10:47:46;100950.47;;;-2.58;100.00
80927;BME280;70385;44.538;18.532;2024-01-10T10:50:28;100954.19;;;-2.23;100.00
80927;BME280;70385;44.538;18.532;2024-01-10T10:52:59;100953.13;;;-2.29;100.00
80927;BME280;70385;44.538;18.532;2024-01-10T10:55:28;100952.09;;;-2.60;100.00
80927;BME280;70385;44.538;18.532;2024-01-10T10:57:56;100939.44;;;-2.55;100.00
80927;BME280;70385;44.538;18.532;2024-01-10T11:00:22;100945.81;;;-2.93;100.00
80927;BME280;70385;44.538;18.532;2024-01-10T11:02:56;100953.69;;;-3.13;100.00
80927;BME280;70385;44.538;18.532;2024-01-10T11:05:38;100944.66;;;-2.52;100.00
80927;BME280;70385;44.538;18.532;2024-01-10T11:08:10;100949.09;;;-2.48;100.00
80927;BME280;70385;44.538;18.532;2024-01-10T11:10:43;100956.66;;;-2.51;100.00
80927;BME280;70385;44.538;18.532;2024-01-10T11:13:38;100943.81;;;-1.72;100.00
80927;BME280;70385;44.538;18.532;2024-01-10T11:25:15;100944.56;;;-2.30;99.47
80927;BME280;70385;44.538;18.532;2024-01-10T11:27:57;100947.91;;;-2.05;99.40
80927;BME280;70385;44.538;18.532;2024-01-10T11:31:00;100937.66;;;-2.58;99.52
80927;BME280;70385;44.538;18.532;2024-01-10T11:33:44;100921.41;;;-2.84;100.00
80927;BME280;70385;44.538;18.532;2024-01-10T11:36:19;100940.94;;;-3.11;100.00
80927;BME280;70385;44.538;18.532;2024-01-10T11:39:04;100927.84;;;-2.95;100.00
80927;BME280;70385;44.538;18.532;2024-01-10T11:41:32;100929.03;;;-3.09;100.00
80927;BME280;70385;44.538;18.532;2024-01-10T11:46:52;100912.81;;;-2.60;100.00
80927;BME280;70385;44.538;18.532;2024-01-10T11:49:25;100911.56;;;-2.46;100.00
80927;BME280;70385;44.538;18.532;2024-01-10T11:52:04;100919.66;;;-2.59;100.00
80927;BME280;70385;44.538;18.532;2024-01-10T11:54:43;100923.69;;;-2.14;100.00
80927;BME280;70385;44.538;18.532;2024-01-10T11:57:33;100917.22;;;-2.02;100.00
80927;BME280;70385;44.538;18.532;2024-01-10T12:00:07;100908.88;;;-1.95;100.00
80927;BME280;70385;44.538;18.532;2024-01-10T12:02:41;100909.13;;;-2.15;100.00
80927;BME280;70385;44.538;18.532;2024-01-10T12:05:09;100905.91;;;-1.52;99.33
80927;BME280;70385;44.538;18.532;2024-01-10T12:07:42;100897.97;;;-1.60;98.48
80927;BME280;70385;44.538;18.532;2024-01-10T12:10:13;100888.72;;;-1.83;98.67
80927;BME280;70385;44.538;18.532;2024-01-10T12:12:39;100897.25;;;-1.84;99.36
80927;BME280;70385;44.538;18.532;2024-01-10T12:15:06;100903.06;;;-1.61;100.00
80927;BME280;70385;44.538;18.532;2024-01-10T12:17:32;100900.38;;;-1.66;100.00
80927;BME280;70385;44.538;18.532;2024-01-10T12:20:05;100898.84;;;-1.59;100.00
80927;BME280;70385;44.538;18.532;2024-01-10T12:22:37;100902.97;;;-1.64;98.44
80927;BME280;70385;44.538;18.532;2024-01-10T12:25:23;100889.16;;;-1.38;97.80
80927;BME280;70385;44.538;18.532;2024-01-10T12:27:51;100888.06;;;-1.76;99.18
80927;BME280;70385;44.538;18.532;2024-01-10T12:30:22;100884.22;;;-1.62;97.92
80927;BME280;70385;44.538;18.532;2024-01-10T12:33:01;100884.66;;;-2.05;99.61
80927;BME280;70385;44.538;18.532;2024-01-10T12:35:31;100877.94;;;-1.73;98.81
80927;BME280;70385;44.538;18.532;2024-01-10T12:38:00;100874.13;;;-1.56;99.44
80927;BME280;70385;44.538;18.532;2024-01-10T12:40:34;100879.97;;;-1.61;97.34
80927;BME280;70385;44.538;18.532;2024-01-10T12:43:26;100871.34;;;-1.63;98.13
80927;BME280;70385;44.538;18.532;2024-01-10T12:46:10;100864.66;;;-1.88;98.10
80927;BME280;70385;44.538;18.532;2024-01-10T12:48:43;100869.09;;;-1.52;96.97
80927;BME280;70385;44.538;18.532;2024-01-10T12:51:13;100874.31;;;-1.49;97.17
80927;BME280;70385;44.538;18.532;2024-01-10T12:53:43;100874.03;;;-1.59;96.12
80927;BME280;70385;44.538;18.532;2024-01-10T12:56:15;100883.78;;;-1.77;97.35
80927;BME280;70385;44.538;18.532;2024-01-10T12:58:42;100872.81;;;-1.73;97.67
80927;BME280;70385;44.538;18.532;2024-01-10T13:01:08;100881.78;;;-1.87;99.45
80927;BME280;70385;44.538;18.532;2024-01-10T13:03:37;100875.44;;;-1.70;99.60
80927;BME280;70385;44.538;18.532;2024-01-10T13:06:05;100883.69;;;-1.80;98.78
80927;BME280;70385;44.538;18.532;2024-01-10T13:08:36;100886.63;;;-1.96;99.20
80927;BME280;70385;44.538;18.532;2024-01-10T13:11:42;100886.63;;;-1.96;98.88
80927;BME280;70385;44.538;18.532;2024-01-10T13:14:18;100876.63;;;-2.16;99.62
80927;BME280;70385;44.538;18.532;2024-01-10T13:16:51;100887.72;;;-2.17;100.00
80927;BME280;70385;44.538;18.532;2024-01-10T13:19:22;100877.66;;;-2.10;100.00
80927;BME280;70385;44.538;18.532;2024-01-10T13:21:48;100881.50;;;-1.96;100.00
80927;BME280;70385;44.538;18.532;2024-01-10T13:24:17;100879.78;;;-2.24;100.00
80927;BME280;70385;44.538;18.532;2024-01-10T13:26:58;100882.50;;;-2.20;100.00
80927;BME280;70385;44.538;18.532;2024-01-10T13:29:26;100884.88;;;-1.97;100.00
80927;BME280;70385;44.538;18.532;2024-01-10T13:31:54;100879.28;;;-2.13;100.00
80927;BME280;70385;44.538;18.532;2024-01-10T13:34:25;100871.84;;;-2.32;100.00
80927;BME280;70385;44.538;18.532;2024-01-10T13:36:58;100871.56;;;-2.41;100.00